createdAt,value
2023-01-03T00:02:15.408Z,14.23
2023-01-03T00:04:47.438Z,18.75
2023-01-03T00:07:33.515Z,9.30
2023-01-03T00:10:02.547Z,13.95
2023-01-03T00:12:31.273Z,10.98
2023-01-03T00:14:59.419Z,10.45
2023-01-03T00:17:26.508Z,14.82
2023-01-03T00:19:53.225Z,10.52
2023-01-03T00:22:20.081Z,12.63
2023-01-03T00:24:48.414Z,10.90
2023-01-03T00:27:16.692Z,15.40
2023-01-03T00:29:43.802Z,10.15
2023-01-03T00:32:10.539Z,17.98
2023-01-03T00:34:37.385Z,12.02
2023-01-03T00:37:04.969Z,14.25
2023-01-03T00:39:31.801Z,10.20
2023-01-03T00:41:58.689Z,20.50
2023-01-03T00:44:25.398Z,13.48
2023-01-03T00:46:52.131Z,11.70
2023-01-03T00:49:18.813Z,18.45
2023-01-03T00:51:45.616Z,13.00
2023-01-03T00:54:13.623Z,11.57
2023-01-03T00:56:43.237Z,14.45
2023-01-03T00:59:11.103Z,12.90
2023-01-03T01:01:47.118Z,16.38
2023-01-03T01:04:14.669Z,16.23
2023-01-03T01:06:50.267Z,13.02
2023-01-03T01:09:21.101Z,13.18
2023-01-03T01:11:48.106Z,23.00
2023-01-03T01:14:21.446Z,17.23
2023-01-03T01:17:00.442Z,13.63
2023-01-03T01:19:30.781Z,18.27
2023-01-03T01:21:58.040Z,15.52
2023-01-03T01:24:25.293Z,11.27
2023-01-03T01:26:52.271Z,13.93
2023-01-03T01:29:19.502Z,14.05
2023-01-03T01:31:48.009Z,12.45
2023-01-03T01:34:15.299Z,14.52
2023-01-03T01:36:43.971Z,17.08
2023-01-03T01:39:16.349Z,13.45
2023-01-03T01:42:02.909Z,12.38
2023-01-03T01:44:48.029Z,17.35
2023-01-03T01:47:43.993Z,14.20
2023-01-03T01:50:20.531Z,17.58
2023-01-03T01:52:59.854Z,19.27
2023-01-03T01:55:34.707Z,18.98
2023-01-03T01:58:01.872Z,17.60
2023-01-03T02:00:29.612Z,17.48
2023-01-03T02:02:56.574Z,19.40
2023-01-03T02:05:25.778Z,16.85
2023-01-03T02:07:53.304Z,22.38
2023-01-03T02:10:38.469Z,12.52
2023-01-03T02:13:36.844Z,25.15
2023-01-03T02:16:16.178Z,15.73
2023-01-03T02:19:13.909Z,17.25
2023-01-03T02:22:14.309Z,25.08
2023-01-03T02:24:58.895Z,22.67
2023-01-03T02:27:56.673Z,22.77
2023-01-03T02:30:35.096Z,17.25
2023-01-03T02:33:18.911Z,16.58
2023-01-03T02:36:00.287Z,21.42
2023-01-03T02:38:44.421Z,18.07
2023-01-03T02:41:43.796Z,22.63
2023-01-03T02:44:25.955Z,21.77
2023-01-03T02:47:06.172Z,19.00
2023-01-03T02:49:43.519Z,14.35
2023-01-03T02:52:14.544Z,16.27
2023-01-03T02:54:45.913Z,18.23
2023-01-03T02:57:17.896Z,17.17
2023-01-03T03:00:08.143Z,15.82
2023-01-03T03:02:37.311Z,20.95
2023-01-03T03:05:10.145Z,15.38
2023-01-03T03:07:39.282Z,20.70
2023-01-03T03:10:26.091Z,17.25
2023-01-03T03:13:13.165Z,15.18
2023-01-03T03:15:45.903Z,18.85
2023-01-03T03:18:17.828Z,20.08
2023-01-03T03:21:02.934Z,21.20
2023-01-03T03:23:53.061Z,15.35
2023-01-03T03:26:25.984Z,19.80
2023-01-03T03:28:57.572Z,17.30
2023-01-03T03:31:40.788Z,14.55
2023-01-03T03:34:21.842Z,15.55
2023-01-03T03:37:05.178Z,14.45
2023-01-03T03:39:51.687Z,18.42
2023-01-03T03:42:59.640Z,19.33
2023-01-03T03:45:37.650Z,17.10
2023-01-03T03:48:25.164Z,21.80
2023-01-03T03:51:01.761Z,18.55
2023-01-03T03:53:33.547Z,20.63
2023-01-03T03:56:07.110Z,16.73
2023-01-03T03:58:39.271Z,24.13
2023-01-03T04:01:08.258Z,19.98
2023-01-03T04:03:37.127Z,20.88
2023-01-03T04:06:22.441Z,24.42
2023-01-03T04:08:50.401Z,21.30
2023-01-03T04:11:17.211Z,26.83
2023-01-03T04:13:43.934Z,22.92
2023-01-03T04:16:11.771Z,23.55
2023-01-03T04:18:38.558Z,22.73
2023-01-03T04:21:05.414Z,28.50
2023-01-03T04:23:32.112Z,22.35
2023-01-03T04:25:58.756Z,24.95
2023-01-03T04:28:25.418Z,27.60
2023-01-03T04:30:52.191Z,27.67
2023-01-03T04:33:18.812Z,24.92
2023-01-03T04:35:45.512Z,30.70
2023-01-03T04:38:12.350Z,27.20
2023-01-03T04:40:39.050Z,23.92
2023-01-03T04:43:24.668Z,24.33
2023-01-03T04:45:51.430Z,25.63
2023-01-03T04:48:18.394Z,24.60
2023-01-03T04:50:53.444Z,23.55
2023-01-03T04:53:20.361Z,25.20
2023-01-03T04:55:48.424Z,30.48
2023-01-03T04:58:15.249Z,26.10
2023-01-03T05:00:42.202Z,29.70
2023-01-03T05:03:09.032Z,24.90
2023-01-03T05:05:39.954Z,28.60
2023-01-03T05:08:09.341Z,29.20
2023-01-03T05:10:38.854Z,28.52
2023-01-03T05:13:05.545Z,26.77
2023-01-03T05:15:36.402Z,24.85
2023-01-03T05:18:03.655Z,31.92
2023-01-03T05:20:49.650Z,26.88
2023-01-03T05:23:36.918Z,25.73
2023-01-03T05:26:11.364Z,22.30
2023-01-03T05:28:39.526Z,21.92
2023-01-03T05:31:06.309Z,30.55
2023-01-03T05:33:33.326Z,23.80
2023-01-03T05:36:00.060Z,22.50
2023-01-03T05:38:26.923Z,28.20
2023-01-03T05:40:53.668Z,22.23
2023-01-03T05:43:20.421Z,23.38
2023-01-03T05:45:51.433Z,23.77
2023-01-03T05:48:18.909Z,26.80
2023-01-03T05:50:46.694Z,28.30
2023-01-03T05:53:13.371Z,29.83
2023-01-03T05:55:40.217Z,24.98
2023-01-03T05:58:07.978Z,24.50
2023-01-03T06:00:35.057Z,23.95
2023-01-03T06:03:01.898Z,25.60
2023-01-03T06:05:28.741Z,27.17
2023-01-03T06:07:55.558Z,28.95
2023-01-03T06:10:22.265Z,30.92
2023-01-03T06:12:49.017Z,30.13
2023-01-03T06:15:15.750Z,35.58
2023-01-03T06:18:02.577Z,31.77
2023-01-03T06:20:30.717Z,29.90
2023-01-03T06:22:57.787Z,38.65
2023-01-03T06:25:25.463Z,32.75
2023-01-03T06:27:52.172Z,32.30
2023-01-03T06:30:18.915Z,36.65
2023-01-03T06:32:45.657Z,33.03
2023-01-03T06:35:13.139Z,35.60
2023-01-03T06:37:40.041Z,30.05
2023-01-03T06:40:07.439Z,30.50
2023-01-03T06:42:43.185Z,37.33
2023-01-03T06:45:31.501Z,39.03
2023-01-03T06:48:17.154Z,32.83
2023-01-03T06:51:03.113Z,40.10
2023-01-03T06:53:35.717Z,32.95
2023-01-03T06:56:03.457Z,31.42
2023-01-03T06:58:30.398Z,33.47
2023-01-03T07:00:59.537Z,36.83
2023-01-03T07:03:26.732Z,30.27
2023-01-03T07:05:53.647Z,36.22
2023-01-03T07:08:20.709Z,39.50
2023-01-03T07:10:47.498Z,35.58
2023-01-03T07:13:33.098Z,29.75
2023-01-03T07:16:00.052Z,36.95
2023-01-03T07:18:26.866Z,31.88
2023-01-03T07:20:53.670Z,32.08
2023-01-03T07:23:20.698Z,31.02
2023-01-03T07:25:47.685Z,28.50
2023-01-03T07:28:15.904Z,32.75
2023-01-03T07:30:45.757Z,39.40
2023-01-03T07:33:15.251Z,34.70
2023-01-03T07:35:42.305Z,34.08
2023-01-03T07:38:10.824Z,32.72
2023-01-03T07:40:37.605Z,28.42
2023-01-03T07:43:22.817Z,42.85
2023-01-03T07:45:49.581Z,34.50
2023-01-03T07:48:16.324Z,32.58
2023-01-03T07:50:43.028Z,37.72
2023-01-03T07:53:16.283Z,35.83
2023-01-03T07:55:44.643Z,35.58
2023-01-03T07:58:11.576Z,33.42
2023-01-03T08:00:39.014Z,34.33
2023-01-03T08:03:10.525Z,35.22
2023-01-03T08:08:05.480Z,37.63
2023-01-03T08:10:50.788Z,40.08
2023-01-03T08:13:17.496Z,39.05
2023-01-03T08:15:55.730Z,41.13
2023-01-03T08:18:25.381Z,39.25
2023-01-03T08:20:54.948Z,46.70
2023-01-03T08:23:25.132Z,38.33
2023-01-03T08:25:52.581Z,39.42
2023-01-03T08:28:19.280Z,40.47
2023-01-03T08:30:56.232Z,38.47
2023-01-03T08:34:25.164Z,38.15
2023-01-03T08:37:01.943Z,37.42
2023-01-03T08:39:49.738Z,37.47
2023-01-03T08:42:20.993Z,40.65
2023-01-03T08:44:51.145Z,43.40
2023-01-03T08:47:18.059Z,39.42
2023-01-03T08:49:44.926Z,44.20
2023-01-03T08:52:11.599Z,43.58
2023-01-03T08:54:39.332Z,37.95
2023-01-03T08:57:06.103Z,44.70
2023-01-03T08:59:32.933Z,50.10
2023-01-03T09:02:01.159Z,37.92
2023-01-03T09:04:28.086Z,40.35
2023-01-03T09:06:54.744Z,39.47
2023-01-03T09:09:21.512Z,37.78
2023-01-03T09:11:48.161Z,45.95
2023-01-03T09:14:15.031Z,40.20
2023-01-03T09:17:04.377Z,39.42
2023-01-03T09:19:30.328Z,37.40
2023-01-03T09:21:57.109Z,29.27
2023-01-03T09:24:23.786Z,35.63
2023-01-03T09:26:54.575Z,33.88
2023-01-03T09:29:21.863Z,36.80
2023-01-03T09:31:48.626Z,32.50
2023-01-03T09:34:15.364Z,30.60
2023-01-03T09:36:42.082Z,35.80
2023-01-03T09:39:08.736Z,40.45
2023-01-03T09:41:35.860Z,31.38
2023-01-03T09:44:06.484Z,33.88
2023-01-03T09:46:35.320Z,29.80
2023-01-03T09:49:03.222Z,37.35
2023-01-03T09:52:01.460Z,29.35
2023-01-03T09:54:51.752Z,30.65
2023-01-03T09:57:42.961Z,27.42
2023-01-03T10:00:36.637Z,31.30
2023-01-03T10:03:50.184Z,30.40
2023-01-03T10:06:37.211Z,28.38
2023-01-03T10:09:30.796Z,34.80
2023-01-03T10:12:03.618Z,25.83
2023-01-03T10:14:39.238Z,22.60
2023-01-03T10:17:35.174Z,25.80
2023-01-03T10:20:33.197Z,24.55
2023-01-03T10:23:01.213Z,21.60
2023-01-03T10:25:28.949Z,18.83
2023-01-03T10:28:20.704Z,22.33
2023-01-03T10:31:16.117Z,18.38
2023-01-03T10:33:45.588Z,16.08
2023-01-03T10:36:13.271Z,14.48
2023-01-03T10:38:47.933Z,17.67
2023-01-03T10:41:33.715Z,16.90
2023-01-03T10:44:02.497Z,18.20
2023-01-03T10:46:30.935Z,15.57
2023-01-03T10:49:28.307Z,12.00
2023-01-03T10:52:17.924Z,12.43
2023-01-03T10:54:50.780Z,15.00
2023-01-03T10:57:50.510Z,13.88
2023-01-03T11:00:27.968Z,19.15
2023-01-03T11:03:01.436Z,22.48
2023-01-03T11:05:28.414Z,13.27
2023-01-03T11:07:57.959Z,13.27
2023-01-03T11:10:32.094Z,12.75
2023-01-03T11:12:58.869Z,9.68
2023-01-03T11:15:39.500Z,9.27
2023-01-03T11:18:27.927Z,14.85
2023-01-03T11:21:30.915Z,11.80
2023-01-03T11:24:02.428Z,12.38
2023-01-03T11:27:00.283Z,14.45
2023-01-03T11:29:36.506Z,10.95
2023-01-03T11:32:40.963Z,10.82
2023-01-03T11:35:24.515Z,9.68
2023-01-03T11:38:10.065Z,11.68
2023-01-03T11:40:52.014Z,8.88
2023-01-03T11:44:10.683Z,7.32
2023-01-03T11:47:05.782Z,14.25
2023-01-03T11:49:56.793Z,7.90
2023-01-03T11:52:56.943Z,9.40
2023-01-03T11:55:50.462Z,7.85
2023-01-03T11:58:51.325Z,7.78
2023-01-03T12:01:44.652Z,13.63
2023-01-03T12:04:39.928Z,9.18
2023-01-03T12:10:23.815Z,9.45
2023-01-03T12:13:15.116Z,8.63
2023-01-03T12:15:47.958Z,8.82
2023-01-03T12:18:36.139Z,4.85
2023-01-03T12:21:10.743Z,6.63
2023-01-03T12:23:45.592Z,11.40
2023-01-03T12:26:15.558Z,5.75
2023-01-03T12:28:52.369Z,6.15
2023-01-03T12:31:26.312Z,9.57
2023-01-03T12:34:13.020Z,4.60
2023-01-03T12:36:48.585Z,5.30
2023-01-03T12:39:35.072Z,7.57
2023-01-03T12:42:24.857Z,3.72
2023-01-03T12:45:02.208Z,4.70
2023-01-03T12:47:42.491Z,4.88
2023-01-03T12:50:32.029Z,4.50
2023-01-03T12:53:19.008Z,4.18
2023-01-03T12:56:37.381Z,4.97
2023-01-03T12:59:26.729Z,2.92
2023-01-03T13:01:59.210Z,7.43
2023-01-03T13:04:33.794Z,6.43
2023-01-03T13:07:12.022Z,12.38
2023-01-03T13:09:46.336Z,6.78
2023-01-03T13:12:22.237Z,6.82
2023-01-03T13:15:13.826Z,7.10
2023-01-03T13:17:48.734Z,7.53
2023-01-03T13:20:30.857Z,3.75
2023-01-03T13:22:59.329Z,4.40
2023-01-03T13:25:39.411Z,4.60
2023-01-03T13:28:21.380Z,7.90
2023-01-03T13:30:48.415Z,4.15
2023-01-03T13:33:20.182Z,5.60
2023-01-03T13:35:46.867Z,7.70
2023-01-03T13:38:32.955Z,6.75
2023-01-03T13:41:21.042Z,4.68
2023-01-03T13:43:51.782Z,4.22
2023-01-03T13:46:29.180Z,3.17
2023-01-03T13:49:04.911Z,5.32
2023-01-03T13:51:41.078Z,9.02
2023-01-03T13:54:10.778Z,4.28
2023-01-03T13:56:43.661Z,4.10
2023-01-03T13:59:29.212Z,4.80
2023-01-03T14:02:36.968Z,8.27
2023-01-03T14:05:28.398Z,5.57
2023-01-03T14:08:37.078Z,6.57
2023-01-03T14:11:23.877Z,9.18
2023-01-03T14:13:53.968Z,4.25
2023-01-03T14:16:51.036Z,4.30
2023-01-03T14:19:25.536Z,9.77
2023-01-03T14:22:26.676Z,8.73
2023-01-03T14:24:52.053Z,6.78
2023-01-03T14:27:21.772Z,5.55
2023-01-03T14:29:52.970Z,4.28
2023-01-03T14:32:34.148Z,4.30
2023-01-03T14:35:01.874Z,6.22
2023-01-03T14:37:30.141Z,6.03
2023-01-03T14:40:03.099Z,6.57
2023-01-03T14:42:29.769Z,5.50
2023-01-03T14:45:26.724Z,8.00
2023-01-03T14:47:55.323Z,11.40
2023-01-03T14:50:28.620Z,5.65
2023-01-03T14:52:58.382Z,4.78
2023-01-03T14:55:28.921Z,8.75
2023-01-03T14:57:56.880Z,5.85
2023-01-03T15:00:33.046Z,6.20
2023-01-03T15:03:02.651Z,4.78
2023-01-03T15:05:41.199Z,4.05
2023-01-03T15:08:15.320Z,6.85
2023-01-03T15:10:47.844Z,6.60
2023-01-03T15:13:31.247Z,4.85
2023-01-03T15:16:01.031Z,6.22
2023-01-03T15:18:31.748Z,8.20
2023-01-03T15:21:01.042Z,13.88
2023-01-03T15:23:37.490Z,6.55
2023-01-03T15:26:06.244Z,3.88
2023-01-03T15:28:48.180Z,6.47
2023-01-03T15:31:23.937Z,9.43
2023-01-03T15:34:21.527Z,4.45
2023-01-03T15:37:12.117Z,10.40
2023-01-03T15:39:50.989Z,9.63
2023-01-03T15:42:45.172Z,10.70
2023-01-03T15:45:25.503Z,10.05
2023-01-03T15:47:55.697Z,10.70
2023-01-03T15:50:25.153Z,8.07
2023-01-03T15:52:52.597Z,4.75
2023-01-03T15:55:19.651Z,14.82
2023-01-03T15:57:52.456Z,5.57
2023-01-03T16:00:22.620Z,14.95
2023-01-03T16:02:51.733Z,5.00
2023-01-03T16:05:22.563Z,9.35
2023-01-03T16:07:50.857Z,5.95
2023-01-03T16:10:17.719Z,6.68
2023-01-03T16:12:44.549Z,10.52
2023-01-03T16:15:20.898Z,8.40
2023-01-03T16:17:49.209Z,4.03
2023-01-03T16:20:18.780Z,3.88
2023-01-03T16:22:59.623Z,10.13
2023-01-03T16:25:27.550Z,6.63
2023-01-03T16:27:57.391Z,6.97
2023-01-03T16:30:24.561Z,8.00
2023-01-03T16:32:51.747Z,9.93
2023-01-03T16:35:20.752Z,5.68
2023-01-03T16:37:47.723Z,7.72
2023-01-03T16:40:20.199Z,5.25
2023-01-03T16:42:47.676Z,7.45
2023-01-03T16:45:15.119Z,6.65
2023-01-03T16:47:43.521Z,5.60
2023-01-03T16:50:16.635Z,9.27
2023-01-03T16:52:55.587Z,115.20
2023-01-03T16:55:28.357Z,32.63
2023-01-03T16:57:56.048Z,25.08
2023-01-03T17:00:28.275Z,13.98
2023-01-03T17:02:56.316Z,4.13
2023-01-03T17:05:23.609Z,8.93
2023-01-03T17:07:55.069Z,9.13
2023-01-03T17:10:33.026Z,9.10
2023-01-03T17:13:05.310Z,8.13
2023-01-03T17:15:35.330Z,6.05
2023-01-03T17:18:02.099Z,7.78
2023-01-03T17:20:28.876Z,7.05
2023-01-03T17:22:59.236Z,7.70
2023-01-03T17:25:26.302Z,17.90
2023-01-03T17:27:57.002Z,8.50
2023-01-03T17:30:27.442Z,6.28
2023-01-03T17:32:55.097Z,6.30
2023-01-03T17:35:21.867Z,6.07
2023-01-03T17:40:36.063Z,13.48
2023-01-03T17:43:03.974Z,8.75
2023-01-03T17:45:49.293Z,6.25
2023-01-03T17:48:34.527Z,8.00
2023-01-03T17:51:02.088Z,11.38
2023-01-03T17:53:29.437Z,6.78
2023-01-03T17:55:56.332Z,11.93
2023-01-03T17:58:30.952Z,5.13
2023-01-03T18:00:57.748Z,8.48
2023-01-03T18:03:24.773Z,5.38
2023-01-03T18:05:56.311Z,10.05
2023-01-03T18:08:25.147Z,4.10
2023-01-03T18:10:53.585Z,8.35
2023-01-03T18:13:22.953Z,7.82
2023-01-03T18:15:50.588Z,6.20
2023-01-03T18:18:19.212Z,4.03
2023-01-03T18:20:46.638Z,3.22
2023-01-03T18:23:21.410Z,7.80
2023-01-03T18:26:07.172Z,6.03
2023-01-03T18:28:34.400Z,7.82
2023-01-03T18:31:01.585Z,7.63
2023-01-03T18:33:28.316Z,5.68
2023-01-03T18:35:57.651Z,8.38
2023-01-03T18:38:34.208Z,3.47
2023-01-03T18:41:05.503Z,5.25
2023-01-03T18:43:33.760Z,6.75
2023-01-03T18:46:00.785Z,9.32
2023-01-03T18:48:27.530Z,11.43
2023-01-03T18:50:58.870Z,8.65
2023-01-03T18:53:28.551Z,4.63
2023-01-03T18:55:55.566Z,3.85
2023-01-03T18:58:29.617Z,4.45
2023-01-03T19:00:56.441Z,5.10
2023-01-03T19:03:25.741Z,12.02
2023-01-03T19:05:55.183Z,6.63
2023-01-03T19:08:24.345Z,5.72
2023-01-03T19:11:00.876Z,9.93
2023-01-03T19:13:31.063Z,5.35
2023-01-03T19:15:57.888Z,10.60
2023-01-03T19:18:24.898Z,8.48
2023-01-03T19:20:51.744Z,6.85
2023-01-03T19:23:26.488Z,12.75
2023-01-03T19:25:54.840Z,6.60
2023-01-03T19:28:25.472Z,11.40
2023-01-03T19:30:52.431Z,8.05
2023-01-03T19:33:20.173Z,4.88
2023-01-03T19:35:48.281Z,8.13
2023-01-03T19:38:15.050Z,7.38
2023-01-03T19:40:45.070Z,8.80
2023-01-03T19:43:20.428Z,7.28
2023-01-03T19:45:47.402Z,8.60
2023-01-03T19:48:18.205Z,12.00
2023-01-03T19:50:45.499Z,5.00
2023-01-03T19:53:12.675Z,10.07
2023-01-03T19:55:42.356Z,4.63
2023-01-03T19:58:21.675Z,2.45
2023-01-03T20:00:50.000Z,9.63
2023-01-03T20:03:45.875Z,7.32
2023-01-03T20:06:15.475Z,7.40
2023-01-03T20:08:42.196Z,8.05
2023-01-03T20:11:18.091Z,2.60
2023-01-03T20:13:45.633Z,9.02
2023-01-03T20:16:12.984Z,4.25
2023-01-03T20:18:58.303Z,4.57
2023-01-03T20:21:30.181Z,5.65
2023-01-03T20:24:01.685Z,4.00
2023-01-03T20:26:31.544Z,8.02
2023-01-03T20:28:59.048Z,5.05
2023-01-03T20:31:26.707Z,5.85
2023-01-03T20:33:53.605Z,4.35
2023-01-03T20:36:23.469Z,2.75
2023-01-03T20:38:53.078Z,3.20
2023-01-03T20:41:20.263Z,4.15
2023-01-03T20:43:49.834Z,4.82
2023-01-03T20:46:20.646Z,2.53
2023-01-03T20:48:55.795Z,5.57
2023-01-03T20:51:24.491Z,8.90
2023-01-03T20:53:54.861Z,3.72
2023-01-03T20:56:22.513Z,5.57
2023-01-03T20:58:49.226Z,1.35
2023-01-03T21:01:16.013Z,4.32
2023-01-03T21:03:42.863Z,7.03
2023-01-03T21:06:26.703Z,6.68
2023-01-03T21:08:57.687Z,4.40
2023-01-03T21:11:31.531Z,4.23
2023-01-03T21:14:00.388Z,3.33
2023-01-03T21:16:30.046Z,3.40
2023-01-03T21:19:00.745Z,4.53
2023-01-03T21:21:29.694Z,1.95
2023-01-03T21:23:56.789Z,6.30
2023-01-03T21:26:23.850Z,2.70
2023-01-03T21:28:50.528Z,4.60
2023-01-03T21:31:20.275Z,7.00
2023-01-03T21:33:47.943Z,5.47
2023-01-03T21:36:26.372Z,6.50
2023-01-03T21:38:53.745Z,4.30
2023-01-03T21:41:29.707Z,4.88
2023-01-03T21:43:58.613Z,3.63
2023-01-03T21:46:26.179Z,10.10
2023-01-03T21:48:53.927Z,4.93
2023-01-03T21:51:35.077Z,6.93
2023-01-03T21:54:06.506Z,2.95
2023-01-03T21:56:33.858Z,2.13
2023-01-03T21:59:00.564Z,7.65
2023-01-03T22:01:28.607Z,3.15
2023-01-03T22:04:14.234Z,4.47
2023-01-03T22:06:40.891Z,1.48
2023-01-03T22:09:27.499Z,7.90
2023-01-03T22:11:54.260Z,4.47
2023-01-03T22:14:20.972Z,4.03
2023-01-03T22:16:47.728Z,3.28
2023-01-03T22:19:14.599Z,3.30
2023-01-03T22:21:41.268Z,4.80
2023-01-03T22:24:08.079Z,2.58
2023-01-03T22:26:34.720Z,1.83
2023-01-03T22:29:01.505Z,7.78
2023-01-03T22:31:28.486Z,3.45
2023-01-03T22:33:55.304Z,3.60
2023-01-03T22:36:22.070Z,3.92
2023-01-03T22:38:49.054Z,4.18
2023-01-03T22:41:17.390Z,2.30
2023-01-03T22:43:45.190Z,2.75
2023-01-03T22:46:14.914Z,6.03
2023-01-03T22:48:42.709Z,4.63
2023-01-03T22:51:12.219Z,5.03
2023-01-03T22:53:40.464Z,3.53
2023-01-03T22:56:08.893Z,2.55
2023-01-03T22:58:37.014Z,3.80
2023-01-03T23:01:16.033Z,2.60
2023-01-03T23:03:46.763Z,8.70
2023-01-03T23:06:18.410Z,4.68
2023-01-03T23:08:49.965Z,4.35
2023-01-03T23:11:36.782Z,3.22
2023-01-03T23:14:09.404Z,3.75
2023-01-03T23:16:36.240Z,5.68
2023-01-03T23:19:04.763Z,3.42
2023-01-03T23:21:31.990Z,2.55
2023-01-03T23:23:58.749Z,9.30
2023-01-03T23:26:25.791Z,3.83
2023-01-03T23:28:56.950Z,4.80
2023-01-03T23:31:26.243Z,4.80
2023-01-03T23:33:59.775Z,2.47
2023-01-03T23:36:27.701Z,1.77
2023-01-03T23:38:55.352Z,1.45
2023-01-03T23:41:22.880Z,4.03
2023-01-03T23:43:50.317Z,4.70
2023-01-03T23:46:22.753Z,6.63
2023-01-03T23:48:54.510Z,3.28
2023-01-03T23:51:21.320Z,1.42
2023-01-03T23:53:48.055Z,4.55
2023-01-03T23:56:16.976Z,0.68
2023-01-03T23:58:44.458Z,2.55
